Data for 06/16/2017

Time Sea-Level Adjusted Pressure Absolute Pressure Temperature Relative Humidity Dew Point   
(mb) (inHg) (mb) (inHg) (C) (F) (%) (C) (F)
00:05 1017 30.03 846 24.98 14 57.2 70 8.6 47.5
00:10 1017 30.03 846 24.98 14 57.3 67 8 46.3
00:15 1017 30.03 846 24.98 14.1 57.4 67 8.2 46.8
00:20 1017 30.03 846 24.98 14.2 57.5 66 8 46.4
00:25 1017 30.03 846 24.98 14.2 57.5 65 7.6 45.8
00:30 1017 30.03 846 24.98 14.1 57.5 67 8.2 46.8
00:35 1017 30.03 846 24.98 14.1 57.3 67 8.1 46.6
00:40 1017 30.03 846 24.98 14.1 57.4 60 6.6 43.9
00:45 1017 30.03 846 24.98 14.5 58.1 59 6.7 44
00:50 1017 30.03 846 24.98 14.6 58.4 58 6.6 44
00:55 1017 30.03 846 24.98 14.7 58.4 62 7.5 45.5
01:00 1017 30.03 846 24.98 14.5 58 65 8.1 46.5
01:05 1017 30.03 846 24.98 14.2 57.5 60 6.7 44.1
01:10 1017 30.03 846 24.98 14.3 57.8 60 6.7 44.1
01:15 1017 30.03 846 24.98 14.3 57.8 60 6.8 44.2
01:20 1016 30 846 24.98 14.3 57.7 60 6.8 44.2
01:25 1016 30 846 24.98 14.3 57.7 60 6.7 44.1
01:30 1016 30 846 24.98 14.2 57.6 61 6.9 44.5
01:35 1016 30 846 24.98 14.2 57.6 62 7.2 44.9
01:40 1016 30 846 24.98 14.1 57.4 61 6.8 44.3
01:45 1016 30 846 24.98 14 57.3 64 7.5 45.5
01:50 1016 30 846 24.98 14 57.1 63 7.1 44.7
01:55 1016 30 846 24.98 14 57.2 63 7.2 44.9
02:00 1016 30 846 24.98 13.9 57.1 62 6.9 44.4
02:05 1016 30 846 24.98 14 57.2 61 6.7 44.1
02:10 1016 30 846 24.98 14.1 57.4 61 6.8 44.3
02:15 1016 30 846 24.98 14.1 57.5 60 6.6 43.8
02:20 1016 30 846 24.98 14.2 57.5 59 6.4 43.4
02:25 1016 30 846 24.98 14.3 57.8 59 6.5 43.7
02:30 1016 30 846 24.98 14.5 58 56 5.9 42.6
02:35 1016 30 845 24.95 14.5 58.2 59 6.6 44
02:40 1016 30 845 24.95 14.5 58.1 57 6.1 43
02:45 1016 30 845 24.95 14.5 58.2 58 6.5 43.8
02:50 1016 30 846 24.98 14.5 58.1 58 6.5 43.6
02:55 1016 30 846 24.98 14.4 57.8 61 7 44.6
03:00 1016 30 846 24.98 14.2 57.5 62 7 44.6
03:05 1016 30 846 24.98 14 57.3 63 7.2 44.9
03:10 1016 30 846 24.98 13.8 56.9 63 7.1 44.7
03:15 1016 30 846 24.98 13.9 57 61 6.7 44
03:20 1016 30 846 24.98 13.9 57.1 63 7.1 44.8
03:25 1016 30 846 24.98 13.8 56.8 63 7 44.5
03:30 1016 30 846 24.98 13.8 56.8 64 7 44.7
03:35 1016 30 846 24.98 13.7 56.7 65 7.2 45
03:40 1016 30 846 24.98 13.6 56.6 64 7.1 44.7
03:45 1016 30 846 24.98 13.7 56.7 65 7.3 45.1
03:50 1016 30 846 24.98 13.7 56.7 65 7.3 45.1
03:55 1016 30 846 24.98 13.7 56.6 63 6.8 44.3
04:00 1016 30 846 24.98 13.7 56.7 67 7.7 45.8
04:05 1016 30 846 24.98 13.6 56.5 64 7 44.6
04:10 1016 30 846 24.98 13.6 56.4 64 7 44.6
04:15 1016 30 846 24.98 13.7 56.6 63 6.8 44.3
04:20 1016 30 846 24.98 13.7 56.6 61 6.3 43.4
04:25 1016 30 846 24.98 13.8 56.9 61 6.5 43.7
04:30 1016 30 845 24.95 13.9 57.1 57 5.7 42.3
04:35 1016 30 846 24.98 14.2 57.6 55 5.3 41.5
04:40 1016 30 846 24.98 14.4 57.9 55 5.6 42
04:45 1016 30 846 24.98 14.4 57.9 55 5.6 42.1
04:50 1016 30 846 24.98 14.3 57.7 56 5.6 42.1
04:55 1016 30 846 24.98 14.3 57.7 55 5.4 41.7
05:00 1016 30 846 24.98 14.5 58 53 5.1 41.2
05:05 1016 30 846 24.98 14.7 58.4 53 5.3 41.5
05:10 1016 30 846 24.98 14.8 58.6 52 5.1 41.3
05:15 1016 30 846 24.98 14.8 58.6 52 5.2 41.3
05:20 1016 30 846 24.98 14.8 58.7 52 5.1 41.2
05:25 1016 30 846 24.98 14.8 58.7 52 5.2 41.3
05:30 1016 30 846 24.98 14.8 58.7 51 5 41
05:35 1016 30 846 24.98 14.9 58.9 52 5.1 41.3
05:40 1016 30 846 24.98 15 58.9 52 5.2 41.3
05:45 1017 30.03 846 24.98 14.9 58.7 53 5.3 41.6
05:50 1016 30 846 24.98 14.8 58.6 52 5.2 41.4
05:55 1016 30 846 24.98 14.7 58.4 54 5.5 42
06:00 1016 30 846 24.98 14.6 58.3 53 5.2 41.4
06:05 1016 30 846 24.98 14.6 58.2 55 5.6 42.1
06:10 1017 30.03 846 24.98 14.5 58 56 5.8 42.4
06:15 1017 30.03 846 24.98 14.3 57.8 57 5.9 42.6
06:20 1017 30.03 846 24.98 14.2 57.6 57 5.9 42.6
06:25 1017 30.03 846 24.98 14.2 57.6 57 5.9 42.6
06:30 1017 30.03 846 24.98 14.3 57.7 56 5.6 42.1
06:35 1017 30.03 846 24.98 14.5 58 55 5.7 42.3
06:40 1017 30.03 846 24.98 14.5 58 56 6 42.8
06:45 1017 30.03 846 24.98 14.4 58 57 6.1 43
06:50 1017 30.03 846 24.98 14.3 57.8 57 6 42.9
06:55 1017 30.03 846 24.98 14.3 57.7 57 6 42.9
07:00 1017 30.03 846 24.98 14.4 57.8 57 6 42.8
07:05 1017 30.03 846 24.98 14.4 57.9 59 6.6 43.9
07:10 1017 30.03 846 24.98 14.4 57.9 57 6.1 43
07:15 1017 30.03 846 24.98 14.6 58.2 55 5.7 42.3
07:20 1017 30.03 846 24.98 14.9 58.7 54 5.6 42.1
07:25 1017 30.03 846 24.98 15.1 59.2 53 5.6 42.1
07:30 1017 30.03 846 24.98 15.2 59.3 54 6.1 42.9
07:35 1017 30.03 846 24.98 15.2 59.4 55 6.4 43.6
07:40 1017 30.03 846 24.98 15.2 59.3 58 7 44.6
07:45 1017 30.03 846 24.98 15.1 59.2 58 6.9 44.4
07:50 1017 30.03 846 24.98 14.7 58.5 63 7.8 46
07:55 1017 30.03 846 24.98 14.2 57.6 63 7.4 45.4
08:00 1017 30.03 846 24.98 14.3 57.7 64 7.6 45.7
08:05 1017 30.03 846 24.98 14.5 58.2 63 7.6 45.7
08:10 1017 30.03 846 24.98 14.9 58.8 59 7.1 44.7
08:15 1017 30.03 846 24.98 15.4 59.7 57 7 44.6
08:20 1017 30.03 846 24.98 15.9 60.6 55 6.9 44.5
08:25 1017 30.03 846 24.98 16.5 61.7 54 7.3 45.2
08:30 1017 30.03 846 24.98 16.5 61.8 54 7.3 45.1
08:35 1017 30.03 846 24.98 16.5 61.7 54 7.3 45.1
08:40 1017 30.03 846 24.98 17 62.5 52 7.2 45
08:45 1017 30.03 846 24.98 17.4 63.4 51 7.2 45
08:50 1017 30.03 846 24.98 17.7 63.9 51 7.5 45.4
08:55 1017 30.03 846 24.98 17.4 63.3 52 7.5 45.4
09:00 1017 30.03 846 24.98 16.2 61.2 51 6.2 43.1
09:05 1017 30.03 846 24.98 16.3 61.3 51 6.2 43.1
09:10 1017 30.03 846 24.98 16.6 61.9 51 6.6 43.8
09:15 1017 30.03 846 24.98 17.2 62.9 48 6.3 43.4
09:20 1017 30.03 846 24.98 17.1 62.8 51 7 44.5
09:25 1017 30.03 846 24.98 16.9 62.4 50 6.6 43.8
09:30 1017 30.03 846 24.98 16.9 62.4 50 6.4 43.5
09:35 1017 30.03 846 24.98 17 62.5 49 6.2 43.2
09:40 1017 30.03 846 24.98 17.3 63.1 48 6.2 43.2
09:45 1017 30.03 846 24.98 17.4 63.4 47 6.2 43.1
09:50 1017 30.03 846 24.98 17.4 63.3 47 6.2 43.1
09:55 1017 30.03 846 24.98 17.2 63 45 5.2 41.4
10:00 1017 30.03 846 24.98 17.4 63.4 43 4.9 40.8
10:05 1017 30.03 846 24.98 18.1 64.5 42 5 41
10:10 1017 30.03 846 24.98 18.2 64.7 42 5.3 41.5
10:15 1017 30.03 846 24.98 18 64.3 41 4.7 40.4
10:20 1017 30.03 846 24.98 18.3 64.9 40 4.8 40.6
10:25 1017 30.03 846 24.98 18.5 65.4 39 4.6 40.3
10:30 1017 30.03 846 24.98 18.2 64.8 40 4.7 40.4
10:35 1017 30.03 846 24.98 18.2 64.7 39 4.1 39.4
10:40 1017 30.03 846 24.98 18.3 65 36 3.2 37.8
10:45 1017 30.03 846 24.98 18.4 65.1 36 3 37.4
10:50 1017 30.03 846 24.98 18.3 65 35 2.6 36.7
10:55 1017 30.03 846 24.98 18.3 64.9 34 2.2 35.9
11:00 1016 30 846 24.98 18.8 65.8 34 2.8 37
11:05 1016 30 846 24.98 18.7 65.7 33 2.2 36
11:10 1016 30 846 24.98 18.7 65.7 34 2.6 36.7
11:15 1016 30 846 24.98 18.8 65.9 33 2.2 36
11:20 1016 30 845 24.95 19 66.2 33 2.5 36.5
11:25 1016 30 845 24.95 19.9 67.8 31 2.2 36
11:30 1016 30 845 24.95 20.1 68.1 31 2.4 36.4
11:35 1016 30 845 24.95 20.2 68.3 31 2.8 37
11:40 1016 30 845 24.95 19.3 66.7 33 2.8 37.1
11:45 1016 30 845 24.95 19.3 66.7 31 2 35.6
11:50 1016 30 845 24.95 20.1 68.2 31 2.8 37.1
11:55 1016 30 845 24.95 20 68 33 3.3 38
12:00 1016 30 845 24.95 20.6 69 29 2.3 36.2
12:05 1016 30 845 24.95 20.3 68.5 29 2 35.6
12:10 1016 30 845 24.95 20.2 68.4 30 2.1 35.7
12:15 1016 30 845 24.95 20.6 69.1 28 1.4 34.5
12:20 1016 30 845 24.95 20.6 69 28 1.8 35.3
12:25 1016 30 845 24.95 20.7 69.3 29 2.3 36.1
12:30 1016 30 845 24.95 20.6 69.1 30 2.4 36.3
12:35 1016 30 845 24.95 21.3 70.3 27 1.5 34.8
12:40 1016 30 845 24.95 20.9 69.5 28 1.8 35.3
12:45 1016 30 845 24.95 20.5 68.9 29 1.8 35.3
12:50 1016 30 845 24.95 20.7 69.3 27 1.1 33.9
12:55 1016 30 845 24.95 20.4 68.7 30 2.4 36.3
13:00 1016 30 845 24.95 20.2 68.3 29 1.7 35.1
13:05 1016 30 845 24.95 20.1 68.2 29 1.8 35.3
13:10 1016 30 845 24.95 20.6 69 29 2.1 35.8
13:15 1016 30 845 24.95 20.6 69.2 29 2.2 35.9
13:20 1016 30 845 24.95 20.3 68.5 28 1.5 34.6
13:25 1015 29.97 845 24.95 20.5 68.9 27 0.9 33.6
13:30 1015 29.97 845 24.95 20.2 68.4 28 1.1 33.9
13:35 1015 29.97 845 24.95 20.3 68.6 29 1.9 35.5
13:40 1015 29.97 845 24.95 20.4 68.6 31 2.7 36.9
13:45 1015 29.97 844 24.92 20.2 68.3 30 2.4 36.3
13:50 1015 29.97 844 24.92 19.5 67.2 33 2.8 37.1
13:55 1015 29.97 844 24.92 19.3 66.8 32 2.2 36
14:00 1015 29.97 844 24.92 19.2 66.6 33 2.9 37.2
14:05 1015 29.97 844 24.92 19 66.2 33 2.6 36.7
14:10 1015 29.97 844 24.92 19 66.2 35 3.3 38
14:15 1015 29.97 844 24.92 19.1 66.3 34 3 37.5
14:20 1015 29.97 844 24.92 18.8 65.9 35 3 37.4
14:25 1015 29.97 844 24.92 18.7 65.7 36 3.4 38.1
14:30 1015 29.97 844 24.92 18.6 65.4 37 3.8 38.9
14:35 1015 29.97 844 24.92 18.4 65.2 37 3.8 38.9
14:40 1015 29.97 844 24.92 18.5 65.3 39 4.3 39.7
14:45 1015 29.97 844 24.92 18.5 65.3 37 3.8 38.9
14:50 1015 29.97 844 24.92 18.6 65.4 37 3.6 38.5
14:55 1015 29.97 844 24.92 18.4 65.1 37 3.6 38.5
15:00 1015 29.97 844 24.92 18.4 65 38 3.9 39
15:05 1015 29.97 844 24.92 18.3 64.9 38 3.9 39
15:10 1015 29.97 844 24.92 18.1 64.6 40 4.3 39.8
15:15 1015 29.97 844 24.92 18 64.3 40 4.2 39.6
15:20 1015 29.97 844 24.92 18 64.3 39 4 39.2
15:25 1015 29.97 844 24.92 17.9 64.2 40 4.2 39.6
15:30 1015 29.97 844 24.92 17.8 64.1 40 4.3 39.7
15:35 1015 29.97 844 24.92 17.9 64.2 41 4.7 40.4
15:40 1015 29.97 844 24.92 17.8 64 42 4.8 40.6
15:45 1015 29.97 844 24.92 17.8 64 42 4.7 40.5
15:50 1015 29.97 844 24.92 17.8 64 42 4.9 40.8
15:55 1015 29.97 844 24.92 17.8 64.1 41 4.7 40.4
16:00 1015 29.97 844 24.92 17.9 64.2 40 4.2 39.6
16:05 1015 29.97 845 24.95 17.6 63.6 44 5.2 41.4
16:10 1015 29.97 845 24.95 16.8 62.2 50 6.5 43.7
16:15 1016 30 845 24.95 16.2 61.1 51 6.2 43.2
16:20 1016 30 845 24.95 16.1 60.9 52 6.2 43.2
16:25 1016 30 845 24.95 16.1 60.9 53 6.5 43.8
16:30 1016 30 845 24.95 16.1 60.9 55 7 44.6
16:35 1016 30 845 24.95 16 60.9 57 7.7 45.8
16:40 1016 30 845 24.95 16 60.8 55 7 44.6
16:45 1016 30 845 24.95 15.6 60.2 58 7.6 45.6
16:50 1016 30 845 24.95 15.3 59.6 62 8.2 46.8
16:55 1016 30 845 24.95 14.8 58.6 67 8.8 47.8
17:00 1016 30 845 24.95 14.4 58 68 8.7 47.6
17:05 1016 30 845 24.95 14.2 57.6 68 8.5 47.4
17:10 1016 30 845 24.95 14.2 57.5 67 8.3 46.9
17:15 1016 30 845 24.95 14.2 57.6 65 7.9 46.2
17:20 1016 30 845 24.95 14.3 57.8 65 8 46.3
17:25 1016 30 845 24.95 14.4 58 65 7.9 46.2
17:30 1016 30 845 24.95 14.5 58.2 64 7.8 46.1
17:35 1016 30 845 24.95 14.6 58.3 61 7.4 45.3
17:40 1016 30 845 24.95 14.6 58.3 59 6.9 44.4
17:45 1016 30 845 24.95 14.6 58.2 59 6.9 44.3
17:50 1016 30 845 24.95 14.6 58.3 61 7.2 45
17:55 1016 30 845 24.95 14.6 58.3 60 6.9 44.4
18:00 1016 30 845 24.95 14.5 58.1 58 6.5 43.7
18:05 1016 30 845 24.95 14.4 57.9 59 6.6 43.9
18:10 1016 30 845 24.95 14.4 57.9 65 7.9 46.1
18:15 1016 30 845 24.95 13.8 56.9 69 8.4 47
18:20 1016 30 845 24.95 13.7 56.6 69 8.1 46.6
18:25 1016 30 845 24.95 13.7 56.7 70 8.4 47.1
18:30 1016 30 845 24.95 13.4 56.1 72 8.4 47.2
18:35 1016 30 845 24.95 13.2 55.8 72 8.4 47.1
18:40 1016 30 845 24.95 13.2 55.8 71 8.1 46.5
18:45 1016 30 845 24.95 13.3 55.9 72 8.3 46.9
18:50 1016 30 845 24.95 13.2 55.8 72 8.3 47
18:55 1016 30 845 24.95 13.1 55.6 73 8.3 47
19:00 1016 30 845 24.95 13.1 55.5 73 8.3 47
19:05 1016 30 845 24.95 13 55.5 72 8.1 46.6
19:10 1016 30 845 24.95 13.1 55.5 72 8.2 46.7
19:15 1016 30 845 24.95 13.1 55.6 69 7.6 45.7
19:20 1016 30 845 24.95 13.3 55.9 70 8 46.4
19:25 1016 30 845 24.95 13.3 56 70 8 46.4
19:30 1016 30 845 24.95 13.3 56 70 8.1 46.5
19:35 1016 30 845 24.95 13.2 55.7 71 8 46.5
19:40 1016 30 845 24.95 13.2 55.7 71 8 46.4
19:45 1015 29.97 845 24.95 13.1 55.5 72 8.2 46.8
19:50 1015 29.97 845 24.95 12.9 55.3 73 8.3 46.9
19:55 1015 29.97 845 24.95 12.9 55.2 72 8 46.5
20:00 1015 29.97 845 24.95 12.9 55.2 72 8 46.4
20:05 1016 30 845 24.95 12.9 55.2 73 8.2 46.7
20:10 1016 30 845 24.95 12.8 55.1 74 8.4 47.1
20:15 1016 30 845 24.95 13 55.3 71 7.9 46.1
20:20 1016 30 845 24.95 13.3 55.9 71 8.2 46.7
20:25 1016 30 845 24.95 13.4 56.2 67 7.6 45.6
20:30 1016 30 845 24.95 13.5 56.4 67 7.6 45.7
20:35 1016 30 845 24.95 13.6 56.4 72 8.6 47.5
20:40 1016 30 845 24.95 13.4 56.1 72 8.5 47.3
20:45 1016 30 845 24.95 13.3 56 70 8 46.4
20:50 1016 30 845 24.95 13.4 56.1 64 6.9 44.4
20:55 1016 30 845 24.95 13.6 56.4 62 6.4 43.6
21:00 1016 30 845 24.95 13.6 56.6 60 6 42.9
21:05 1016 30 845 24.95 13.6 56.5 59 5.7 42.3
21:10 1016 30 845 24.95 13.6 56.5 60 6.1 42.9
21:15 1016 30 845 24.95 13.5 56.2 62 6.5 43.6
21:20 1016 30 845 24.95 13.2 55.8 64 6.6 43.8
21:25 1016 30 845 24.95 13.1 55.7 64 6.5 43.7
21:30 1016 30 845 24.95 13.1 55.6 64 6.5 43.7
21:35 1016 30 845 24.95 13.1 55.6 63 6.4 43.5
21:40 1016 30 845 24.95 13.1 55.5 64 6.4 43.6
21:45 1016 30 845 24.95 13 55.5 65 6.6 44
21:50 1016 30 845 24.95 12.9 55.2 65 6.5 43.6
21:55 1016 30 845 24.95 12.7 54.8 66 6.5 43.6
22:00 1016 30 845 24.95 12.2 54 69 6.7 44.1
22:05 1016 30 845 24.95 11.9 53.4 68 6.3 43.3
22:10 1016 30 845 24.95 11.9 53.4 69 6.4 43.5
22:15 1016 30 845 24.95 11.9 53.4 66 5.9 42.6
22:20 1016 30 845 24.95 12 53.5 66 5.8 42.5
22:25 1016 30 846 24.98 12 53.6 65 5.7 42.2
22:30 1016 30 846 24.98 12.1 53.7 66 5.9 42.6
22:35 1017 30.03 846 24.98 12.1 53.7 66 5.9 42.6
22:40 1017 30.03 846 24.98 12.1 53.7 68 6.3 43.3
22:45 1017 30.03 846 24.98 12.1 53.7 67 6.2 43.2
22:50 1017 30.03 846 24.98 12 53.6 66 5.9 42.7
22:55 1017 30.03 846 24.98 12 53.6 66 6 42.7
23:00 1017 30.03 846 24.98 12 53.6 67 6.1 43
23:05 1017 30.03 846 24.98 12 53.5 68 6.2 43.2
23:10 1017 30.03 846 24.98 11.8 53.3 69 6.5 43.6
23:15 1017 30.03 846 24.98 11.7 53 72 6.8 44.2
23:20 1017 30.03 846 24.98 11.4 52.5 73 6.8 44.2
23:25 1017 30.03 846 24.98 11.1 51.9 77 7.3 45.1
23:30 1017 30.03 846 24.98 10.9 51.7 77 7 44.6
23:35 1017 30.03 846 24.98 10.9 51.5 78 7.2 44.9
23:40 1017 30.03 846 24.98 10.8 51.5 74 6.4 43.5
23:45 1017 30.03 846 24.98 11 51.8 72 6.1 42.9
23:50 1017 30.03 846 24.98 11.1 51.9 71 6.1 43
23:55 1017 30.03 846 24.98 11.1 51.9 73 6.4 43.6
24:00 1017 30.03 846 24.98 10.9 51.6 75 6.6 43.8